Time;durP1;ratioP1;P1;durP2;ratioP2;P2;SDS_P1;SDS_P2;PMS_P1;PMS_P2;Temp;Humidity;BMP_temperature;BMP_pressure;BME280_temperature;BME280_humidity;BME280_pressure;Samples;Min_cycle;Max_cycle;Signal;HPM_P1;HPM_P2
2023/01/21 00:01:13;;;;;;;9.43;5.10;;;;;;;3.93;78.27;101038.59;5043344;28;20219;-65
2023/01/21 00:03:41;;;;;;;8.53;5.20;;;;;;;3.99;78.23;101047.84;5043642;28;20217;-63
2023/01/21 00:06:09;;;;;;;9.00;4.80;;;;;;;3.87;78.24;101049.44;5043254;28;20277;-65
2023/01/21 00:08:37;;;;;;;9.10;4.70;;;;;;;3.78;78.56;101053.44;5047088;28;20216;-66
2023/01/21 00:11:06;;;;;;;9.80;5.20;;;;;;;3.76;78.97;101060.56;5048036;28;20235;-65
2023/01/21 00:13:34;;;;;;;7.90;4.50;;;;;;;3.70;79.77;101054.81;5044436;28;20617;-64
2023/01/21 00:16:05;;;;;;;9.63;5.10;;;;;;;3.64;80.05;101060.44;5041790;28;20661;-64
2023/01/21 00:18:33;;;;;;;9.50;5.23;;;;;;;3.70;79.74;101060.91;5039659;28;20240;-64
2023/01/21 00:21:01;;;;;;;10.63;4.67;;;;;;;3.77;79.63;101061.44;5046034;28;20210;-64
2023/01/21 00:23:28;;;;;;;10.00;4.80;;;;;;;3.73;79.59;101067.78;5043626;28;20306;-65
2023/01/21 00:26:00;;;;;;;9.13;4.97;;;;;;;3.83;79.53;101074.16;5040340;28;20212;-64
2023/01/21 00:28:29;;;;;;;8.30;3.93;;;;;;;3.89;79.05;101072.94;5042382;28;20302;-64
2023/01/21 00:30:58;;;;;;;8.67;3.83;;;;;;;3.98;78.29;101080.28;5045603;28;20300;-64
2023/01/21 00:33:28;;;;;;;6.00;3.50;;;;;;;3.95;78.14;101077.84;5042999;28;20212;-65
2023/01/21 00:36:00;;;;;;;8.20;3.37;;;;;;;3.92;78.12;101081.50;5047901;28;20246;-64
2023/01/21 00:38:39;;;;;;;6.07;3.43;;;;;;;3.74;79.10;101082.56;5043349;28;20234;-65
2023/01/21 00:41:09;;;;;;;7.30;3.43;;;;;;;3.87;78.89;101085.34;5042411;28;20247;-64
2023/01/21 00:43:38;;;;;;;6.53;3.43;;;;;;;4.03;78.46;101100.09;5046153;28;20279;-65
2023/01/21 00:46:06;;;;;;;4.83;2.73;;;;;;;4.08;77.78;101102.41;5046879;28;20963;-64
2023/01/21 00:48:36;;;;;;;5.20;3.03;;;;;;;4.12;78.01;101101.31;5041065;28;21148;-66
2023/01/21 00:51:04;;;;;;;6.50;2.70;;;;;;;4.20;77.43;101108.72;5040669;28;20228;-64
2023/01/21 00:53:34;;;;;;;7.33;3.10;;;;;;;4.21;77.13;101102.53;5042209;28;20804;-63
2023/01/21 00:56:04;;;;;;;5.70;2.70;;;;;;;4.23;77.14;101116.41;5047997;28;20205;-63
2023/01/21 00:58:32;;;;;;;5.13;3.00;;;;;;;4.18;76.97;101115.84;5040828;28;20230;-64
2023/01/21 01:01:01;;;;;;;5.87;3.13;;;;;;;4.14;77.38;101129.13;5044385;28;20205;-66
2023/01/21 01:03:29;;;;;;;7.13;3.27;;;;;;;4.20;77.11;101124.47;5042551;28;20308;-64
2023/01/21 01:06:03;;;;;;;5.43;3.00;;;;;;;4.24;77.00;101131.22;5043984;28;20238;-65
2023/01/21 01:08:32;;;;;;;4.53;2.63;;;;;;;4.30;76.38;101134.34;5043408;28;20213;-65
2023/01/21 01:11:00;;;;;;;5.00;2.83;;;;;;;4.20;76.68;101142.84;5043306;28;20352;-66
2023/01/21 01:13:28;;;;;;;3.93;2.17;;;;;;;4.21;77.01;101148.03;5043006;28;20214;-65
2023/01/21 01:15:57;;;;;;;5.90;2.77;;;;;;;4.19;77.04;101146.41;5046050;28;20570;-64
2023/01/21 01:18:27;;;;;;;4.37;2.03;;;;;;;4.27;77.20;101166.03;5043055;28;20210;-65
2023/01/21 01:20:55;;;;;;;5.53;2.37;;;;;;;4.39;76.69;101164.47;5042486;28;20210;-64
2023/01/21 01:23:24;;;;;;;5.07;2.43;;;;;;;4.49;75.79;101171.66;5051064;28;20229;-64
2023/01/21 01:25:56;;;;;;;6.80;2.40;;;;;;;4.46;75.44;101171.03;5043265;28;20210;-66
2023/01/21 01:28:24;;;;;;;4.20;2.17;;;;;;;4.47;75.54;101180.59;5041224;28;20607;-66
2023/01/21 01:30:52;;;;;;;4.60;2.50;;;;;;;4.43;75.53;101187.81;5045175;28;20211;-64
2023/01/21 01:33:20;;;;;;;4.70;2.23;;;;;;;4.38;75.72;101189.03;5045015;28;20247;-64
2023/01/21 01:35:49;;;;;;;4.97;1.90;;;;;;;4.36;75.97;101196.16;5042295;28;20218;-66
2023/01/21 01:38:18;;;;;;;5.53;2.27;;;;;;;4.39;75.75;101195.97;5042010;28;20225;-65
2023/01/21 01:40:49;;;;;;;3.90;1.90;;;;;;;4.43;75.82;101197.47;5039162;28;20825;-64
2023/01/21 01:43:20;;;;;;;5.03;2.27;;;;;;;4.44;75.77;101204.41;5042763;28;20276;-64
2023/01/21 01:45:48;;;;;;;3.23;1.87;;;;;;;4.38;75.68;101204.78;5040985;28;20211;-64
2023/01/21 01:48:20;;;;;;;4.63;2.57;;;;;;;4.37;75.70;101213.59;5040466;28;20900;-64
2023/01/21 01:50:49;;;;;;;5.03;2.70;;;;;;;4.30;76.30;101213.13;5039688;28;20209;-64
2023/01/21 01:53:19;;;;;;;4.57;2.50;;;;;;;4.30;76.45;101220.16;5040151;28;20213;-65
2023/01/21 01:55:49;;;;;;;4.83;2.90;;;;;;;4.28;76.59;101219.38;5042569;28;20639;-66
2023/01/21 01:58:20;;;;;;;6.50;2.70;;;;;;;4.35;76.36;101226.81;5044096;28;20328;-65
2023/01/21 02:00:48;;;;;;;4.57;2.60;;;;;;;4.37;76.23;101222.31;5046167;28;20333;-66
2023/01/21 02:06:03;;;;;;;6.23;3.37;;;;;;;4.60;75.45;101220.94;5044813;28;20210;-64
2023/01/21 02:08:34;;;;;;;6.50;3.43;;;;;;;4.61;75.53;101224.41;5043747;28;20224;-65
2023/01/21 02:11:10;;;;;;;5.83;3.53;;;;;;;4.69;75.16;101236.16;5042601;28;20234;-64
2023/01/21 02:13:38;;;;;;;7.07;3.43;;;;;;;4.79;74.44;101236.44;5047855;28;20216;-64
2023/01/21 02:16:23;;;;;;;5.27;2.87;;;;;;;4.79;74.36;101234.66;5047864;28;20218;-65
2023/01/21 02:19:01;;;;;;;5.93;3.40;;;;;;;4.73;74.54;101240.31;5042180;28;20259;-66
2023/01/21 02:21:53;;;;;;;5.87;3.50;;;;;;;4.71;74.80;101243.94;5044095;28;20201;-64
2023/01/21 02:24:48;;;;;;;8.20;3.80;;;;;;;4.69;74.73;101241.41;5044450;28;20682;-63
2023/01/21 02:27:42;;;;;;;6.13;3.13;;;;;;;4.63;74.83;101236.53;5043848;28;20209;-66
2023/01/21 02:30:59;;;;;;;5.60;3.10;;;;;;;4.57;75.24;101236.91;5045388;28;20212;-63
2023/01/21 02:33:48;;;;;;;6.07;3.30;;;;;;;4.58;75.37;101241.19;5045308;28;20225;-65
2023/01/21 02:36:32;;;;;;;8.03;4.17;;;;;;;4.60;75.37;101241.09;5041278;28;20313;-65
2023/01/21 02:39:08;;;;;;;8.60;4.67;;;;;;;4.64;75.10;101248.72;5046326;28;20670;-64
2023/01/21 02:41:50;;;;;;;10.60;5.70;;;;;;;4.66;74.89;101256.53;5048165;28;20941;-64
2023/01/21 02:44:26;;;;;;;11.17;6.30;;;;;;;4.67;74.82;101251.16;5047053;28;20202;-65
2023/01/21 02:47:01;;;;;;;10.87;6.30;;;;;;;4.65;74.71;101253.06;5048509;28;20236;-64
2023/01/21 02:49:34;;;;;;;11.50;6.77;;;;;;;4.61;75.16;101254.16;5044246;28;20222;-66
2023/01/21 02:52:02;;;;;;;9.47;5.47;;;;;;;4.64;74.84;101253.97;5045703;28;20690;-64
2023/01/21 02:54:49;;;;;;;12.70;5.70;;;;;;;4.72;74.66;101262.25;5044256;28;20700;-64
2023/01/21 02:57:26;;;;;;;8.57;5.30;;;;;;;4.71;74.38;101260.56;5047456;28;20221;-64
2023/01/21 02:59:55;;;;;;;13.70;6.97;;;;;;;4.70;74.80;101258.03;5046806;28;20239;-64
2023/01/21 03:02:38;;;;;;;13.87;6.23;;;;;;;4.68;74.63;101260.72;5046683;28;20219;-65
2023/01/21 03:05:14;;;;;;;12.97;6.90;;;;;;;4.69;74.58;101275.56;5045139;28;20897;-64
2023/01/21 03:07:47;;;;;;;14.83;7.43;;;;;;;4.77;74.35;101275.09;5046907;28;20798;-64
2023/01/21 03:10:22;;;;;;;16.40;8.23;;;;;;;4.80;73.86;101278.41;5047119;28;20874;-66
2023/01/21 03:12:59;;;;;;;19.43;9.13;;;;;;;4.74;74.06;101286.66;5048269;28;20673;-66
2023/01/21 03:18:23;;;;;;;21.37;11.50;;;;;;;4.69;74.38;101285.22;5046560;28;20216;-63
2023/01/21 03:20:55;;;;;;;26.90;13.93;;;;;;;4.64;74.36;101290.78;5046937;28;20215;-65
2023/01/21 03:23:29;;;;;;;26.37;14.80;;;;;;;4.67;74.36;101290.56;5044998;28;20218;-65
2023/01/21 03:25:58;;;;;;;29.00;15.60;;;;;;;4.64;73.98;101289.91;5047080;28;20332;-65
2023/01/21 03:28:31;;;;;;;31.73;15.97;;;;;;;4.65;73.81;101294.25;5038364;28;20597;-66
2023/01/21 03:31:04;;;;;;;31.27;15.47;;;;;;;4.63;73.48;101294.31;5043294;28;20204;-66
2023/01/21 03:33:36;;;;;;;31.93;16.13;;;;;;;4.61;73.78;101298.81;5047177;28;20298;-66
2023/01/21 03:36:10;;;;;;;28.33;15.63;;;;;;;4.63;73.36;101298.72;5042862;28;20298;-64
2023/01/21 03:38:44;;;;;;;28.33;15.70;;;;;;;4.63;73.24;101304.84;5046908;28;20293;-64
2023/01/21 03:41:16;;;;;;;29.27;15.97;;;;;;;4.63;73.16;101309.25;5044508;28;20246;-64
2023/01/21 03:43:45;;;;;;;26.73;16.20;;;;;;;4.59;72.99;101303.31;5045208;28;20301;-64
2023/01/21 03:46:20;;;;;;;30.73;16.33;;;;;;;4.63;72.78;101310.09;5044924;28;20293;-63
2023/01/21 03:48:54;;;;;;;32.43;16.20;;;;;;;4.65;72.52;101313.47;5041252;28;20840;-65
2023/01/21 03:51:29;;;;;;;30.97;16.57;;;;;;;4.64;72.45;101316.19;5043948;28;20584;-64
2023/01/21 03:53:57;;;;;;;31.90;16.30;;;;;;;4.50;72.45;101314.34;5047646;28;20229;-64
2023/01/21 03:56:26;;;;;;;29.77;15.43;;;;;;;4.47;72.69;101315.41;5044422;28;20584;-66
2023/01/21 03:58:54;;;;;;;29.47;16.67;;;;;;;4.47;72.64;101314.53;5041522;28;20313;-66
2023/01/21 04:01:22;;;;;;;30.67;15.63;;;;;;;4.47;72.67;101319.78;5042758;28;20238;-66
2023/01/21 04:03:49;;;;;;;30.90;16.30;;;;;;;4.47;72.41;101322.44;5046419;28;20322;-65
2023/01/21 04:06:19;;;;;;;30.97;16.13;;;;;;;4.47;72.31;101325.06;5044935;28;20244;-64
2023/01/21 04:08:49;;;;;;;28.13;15.03;;;;;;;4.49;72.49;101334.50;5044897;28;20243;-64
2023/01/21 04:11:17;;;;;;;29.37;15.50;;;;;;;4.41;72.27;101328.84;5041254;28;20248;-63
2023/01/21 04:13:44;;;;;;;27.07;15.67;;;;;;;4.47;72.05;101332.94;5045163;28;20244;-65
2023/01/21 04:16:12;;;;;;;28.17;15.07;;;;;;;4.47;72.02;101332.94;5043937;28;20217;-64
2023/01/21 04:18:40;;;;;;;32.63;16.30;;;;;;;4.48;71.81;101340.72;5041310;28;20752;-65
2023/01/21 04:21:08;;;;;;;28.33;14.80;;;;;;;4.49;71.47;101345.03;5042891;28;20234;-63
2023/01/21 04:23:36;;;;;;;29.47;15.03;;;;;;;4.47;71.08;101346.91;5042793;28;20250;-64
2023/01/21 04:26:06;;;;;;;29.53;15.60;;;;;;;4.36;71.43;101343.19;5041259;28;20206;-64
2023/01/21 04:28:34;;;;;;;27.57;14.80;;;;;;;4.32;71.78;101350.38;5041358;28;20264;-63
2023/01/21 04:31:02;;;;;;;26.13;14.60;;;;;;;4.40;71.04;101356.06;5048336;28;20208;-65
2023/01/21 04:33:30;;;;;;;31.03;13.97;;;;;;;4.38;70.58;101354.47;5045089;28;20222;-64
2023/01/21 04:35:58;;;;;;;24.63;14.37;;;;;;;4.41;70.17;101346.41;5043945;28;20210;-63
2023/01/21 04:38:26;;;;;;;26.53;13.90;;;;;;;4.36;69.99;101349.28;5046773;28;20309;-63
2023/01/21 04:40:54;;;;;;;28.53;13.50;;;;;;;4.30;69.96;101359.31;5045243;28;20721;-63
2023/01/21 04:43:23;;;;;;;27.00;14.67;;;;;;;4.24;70.07;101355.22;5048807;28;20217;-65
2023/01/21 04:45:51;;;;;;;27.67;14.27;;;;;;;4.21;70.25;101351.94;5047317;28;20204;-65
2023/01/21 04:48:18;;;;;;;28.23;13.47;;;;;;;4.22;70.02;101361.53;5050395;28;20212;-63
2023/01/21 04:50:46;;;;;;;32.47;14.77;;;;;;;4.23;69.89;101358.78;5049264;28;20204;-62
2023/01/21 04:53:14;;;;;;;25.40;14.00;;;;;;;4.15;69.84;101356.59;5048014;28;20216;-63
2023/01/21 04:55:42;;;;;;;24.30;12.57;;;;;;;4.06;69.91;101362.34;5045210;28;20300;-63
2023/01/21 04:58:10;;;;;;;27.03;13.87;;;;;;;4.02;69.95;101366.09;5040682;28;20212;-64
2023/01/21 05:00:39;;;;;;;30.00;14.67;;;;;;;4.01;70.22;101376.66;5044069;28;20213;-64
2023/01/21 05:03:06;;;;;;;28.80;14.13;;;;;;;4.00;70.36;101377.59;5043057;28;20218;-65
2023/01/21 05:05:34;;;;;;;29.90;13.93;;;;;;;3.96;70.41;101381.34;5046710;28;20804;-64
2023/01/21 05:08:02;;;;;;;26.23;13.77;;;;;;;3.92;70.38;101378.03;5049704;28;20211;-64
2023/01/21 05:10:29;;;;;;;31.23;15.50;;;;;;;3.92;70.35;101385.03;5050033;28;20241;-64
2023/01/21 05:12:58;;;;;;;27.20;14.23;;;;;;;3.88;70.06;101399.25;5048238;28;20212;-65
2023/01/21 05:15:26;;;;;;;28.50;14.63;;;;;;;3.84;70.14;101395.97;5048981;28;20640;-64
2023/01/21 05:17:55;;;;;;;26.30;14.30;;;;;;;3.82;70.10;101397.81;5048173;28;20745;-64
2023/01/21 05:20:23;;;;;;;27.20;14.33;;;;;;;3.81;69.96;101401.38;5050475;28;20250;-64
2023/01/21 05:22:51;;;;;;;32.17;13.47;;;;;;;3.69;69.75;101407.28;5048932;28;20258;-64
2023/01/21 05:25:18;;;;;;;28.30;14.83;;;;;;;3.63;69.90;101405.81;5041089;28;20570;-65
2023/01/21 05:27:51;;;;;;;23.90;13.43;;;;;;;3.60;69.94;101410.38;5045440;28;20216;-64
2023/01/21 05:30:20;;;;;;;26.67;13.37;;;;;;;3.59;69.82;101408.69;5047910;28;20213;-64
2023/01/21 05:32:50;;;;;;;26.73;13.27;;;;;;;3.57;69.64;101414.00;5048180;28;20234;-66
2023/01/21 05:35:21;;;;;;;21.90;11.57;;;;;;;3.59;69.51;101413.94;5051613;28;20227;-65
2023/01/21 05:37:48;;;;;;;27.33;13.70;;;;;;;3.60;69.01;101420.88;5051420;28;20220;-65
2023/01/21 05:40:17;;;;;;;26.83;12.10;;;;;;;3.56;69.08;101417.56;5048156;28;20239;-64
2023/01/21 05:42:46;;;;;;;23.10;11.67;;;;;;;3.55;68.75;101434.22;5049674;28;20229;-65
2023/01/21 05:45:14;;;;;;;23.03;12.03;;;;;;;3.60;68.53;101429.59;5047832;28;20231;-64
2023/01/21 05:47:42;;;;;;;25.07;11.37;;;;;;;3.61;67.96;101438.28;5041076;28;20208;-64
2023/01/21 05:50:11;;;;;;;23.13;11.80;;;;;;;3.55;68.09;101438.63;5046019;28;20583;-65
2023/01/21 05:52:40;;;;;;;24.00;11.63;;;;;;;3.55;68.09;101434.22;5048775;28;20204;-65
2023/01/21 05:55:08;;;;;;;23.03;11.53;;;;;;;3.50;67.82;101438.03;5047793;28;20703;-64
2023/01/21 05:57:36;;;;;;;23.50;12.10;;;;;;;3.45;67.94;101443.47;5045969;28;20212;-65
2023/01/21 06:00:05;;;;;;;23.90;11.97;;;;;;;3.51;67.86;101444.97;5050636;28;20236;-65
2023/01/21 06:02:33;;;;;;;25.77;12.37;;;;;;;3.48;67.57;101445.09;5044323;28;20226;-66
2023/01/21 06:05:01;;;;;;;24.73;11.47;;;;;;;3.44;67.83;101447.03;5046595;28;20212;-65
2023/01/21 06:07:28;;;;;;;24.47;11.77;;;;;;;3.42;67.73;101446.28;5040680;28;20761;-64
2023/01/21 06:09:57;;;;;;;24.53;11.93;;;;;;;3.36;67.80;101460.53;5043129;28;20212;-65
2023/01/21 06:12:25;;;;;;;25.80;13.57;;;;;;;3.33;68.00;101452.84;5043854;28;21103;-64
2023/01/21 06:14:53;;;;;;;25.63;12.83;;;;;;;3.30;68.04;101455.63;5043610;28;20519;-66
2023/01/21 06:17:20;;;;;;;25.33;11.97;;;;;;;3.25;68.39;101460.25;5041193;28;20588;-66
2023/01/21 06:20:10;;;;;;;23.63;12.10;;;;;;;3.22;68.21;101463.03;5041112;28;20310;-65
2023/01/21 06:22:55;;;;;;;27.20;12.47;;;;;;;3.21;67.94;101469.19;5031020;28;20239;-63
2023/01/21 06:25:24;;;;;;;25.70;11.97;;;;;;;3.20;68.05;101479.75;5045026;28;20214;-64
2023/01/21 06:27:54;;;;;;;25.10;12.60;;;;;;;3.16;67.98;101488.69;5042673;28;20215;-65
2023/01/21 06:30:22;;;;;;;26.90;12.77;;;;;;;3.16;67.89;101486.94;5042211;28;20675;-65
2023/01/21 06:32:50;;;;;;;26.23;12.47;;;;;;;3.10;67.68;101486.34;5043613;28;20331;-66
2023/01/21 06:35:18;;;;;;;27.97;12.60;;;;;;;3.08;67.85;101491.66;5044534;28;20216;-65
2023/01/21 06:37:46;;;;;;;28.03;12.63;;;;;;;3.02;67.67;101492.84;5047038;28;20215;-65
2023/01/21 06:40:15;;;;;;;26.40;12.70;;;;;;;3.00;67.59;101496.44;5045204;28;20242;-64
2023/01/21 06:42:47;;;;;;;26.93;12.87;;;;;;;3.01;67.05;101500.75;5048130;28;20255;-66
2023/01/21 06:45:15;;;;;;;24.13;11.60;;;;;;;2.99;66.98;101502.63;5045598;28;20218;-65
2023/01/21 06:47:44;;;;;;;26.23;12.40;;;;;;;2.91;66.94;101510.84;5043284;28;20568;-67
2023/01/21 06:50:14;;;;;;;27.43;12.80;;;;;;;2.86;66.70;101507.59;5046419;28;20577;-67
2023/01/21 06:52:44;;;;;;;27.73;12.43;;;;;;;2.83;66.96;101512.13;5047668;28;20245;-65
2023/01/21 06:55:12;;;;;;;27.73;12.43;;;;;;;2.81;66.69;101516.63;5046203;28;20227;-65
2023/01/21 06:57:40;;;;;;;28.43;12.27;;;;;;;2.77;66.80;101512.44;5049763;28;20879;-64
2023/01/21 07:00:12;;;;;;;25.77;12.97;;;;;;;2.74;66.58;101528.28;5048673;28;20772;-64
2023/01/21 07:02:39;;;;;;;25.93;12.00;;;;;;;2.72;66.64;101520.53;5044794;28;20232;-65
2023/01/21 07:05:08;;;;;;;25.30;11.63;;;;;;;2.72;66.60;101527.53;5046219;28;20211;-64
2023/01/21 07:07:35;;;;;;;25.03;12.83;;;;;;;2.68;66.67;101532.06;5045746;28;20204;-67
2023/01/21 07:10:04;;;;;;;28.90;12.53;;;;;;;2.72;66.54;101527.53;5049812;28;20204;-67
2023/01/21 07:12:32;;;;;;;23.03;11.30;;;;;;;2.70;66.18;101532.00;5048398;28;21117;-64
2023/01/21 07:14:59;;;;;;;27.93;13.53;;;;;;;2.63;66.18;101534.91;5045378;28;20307;-64
2023/01/21 07:17:28;;;;;;;24.23;11.00;;;;;;;2.57;66.31;101537.78;5046954;28;20247;-65
2023/01/21 07:19:56;;;;;;;24.63;11.67;;;;;;;2.57;66.48;101539.56;5047329;28;20214;-66
2023/01/21 07:22:26;;;;;;;26.97;13.23;;;;;;;2.55;66.26;101538.81;5046853;28;20227;-66
2023/01/21 07:24:54;;;;;;;29.10;12.63;;;;;;;2.52;66.28;101545.00;5047472;28;20299;-65
2023/01/21 07:27:22;;;;;;;27.57;13.00;;;;;;;2.54;66.24;101553.66;5047503;28;20215;-65
2023/01/21 07:29:50;;;;;;;26.40;12.17;;;;;;;2.53;66.17;101549.34;5050163;28;20596;-66
2023/01/21 07:32:18;;;;;;;27.43;12.23;;;;;;;2.54;66.08;101553.66;5048412;28;20243;-64
2023/01/21 07:34:47;;;;;;;24.17;12.00;;;;;;;2.52;66.05;101558.09;5046328;28;20211;-66
2023/01/21 07:37:14;;;;;;;25.50;12.37;;;;;;;2.53;66.08;101561.56;5043574;28;20219;-64
2023/01/21 07:39:42;;;;;;;28.77;12.67;;;;;;;2.52;66.10;101559.88;5042899;28;20247;-63
2023/01/21 07:42:10;;;;;;;26.80;13.03;;;;;;;2.52;65.92;101565.13;5043215;28;20239;-64
2023/01/21 07:44:38;;;;;;;29.27;12.93;;;;;;;2.52;66.01;101571.19;5045033;28;20208;-64
2023/01/21 07:47:06;;;;;;;26.40;12.67;;;;;;;2.52;65.97;101571.19;5042648;28;20208;-69
2023/01/21 07:49:33;;;;;;;28.67;12.43;;;;;;;2.53;65.68;101575.53;5041657;28;20817;-70
2023/01/21 07:52:03;;;;;;;28.23;13.07;;;;;;;2.56;65.63;101580.59;5043500;28;20204;-70
2023/01/21 07:54:30;;;;;;;27.83;14.00;;;;;;;2.54;65.47;101574.59;5042511;28;20219;-68
2023/01/21 07:56:58;;;;;;;29.13;13.20;;;;;;;2.57;65.39;101579.69;5045439;28;20219;-70
2023/01/21 07:59:27;;;;;;;27.03;13.60;;;;;;;2.53;65.49;101580.75;5043232;28;20234;-69
2023/01/21 08:01:56;;;;;;;26.37;12.43;;;;;;;2.53;65.59;101585.16;5042629;28;20208;-70
2023/01/21 08:04:25;;;;;;;30.57;13.63;;;;;;;2.53;65.48;101593.00;5043752;28;20245;-69
2023/01/21 08:06:55;;;;;;;27.33;13.30;;;;;;;2.53;65.32;101586.00;5048381;28;20328;-69
2023/01/21 08:09:25;;;;;;;27.27;12.50;;;;;;;2.56;65.38;101596.31;5043349;28;20200;-70
2023/01/21 08:11:53;;;;;;;27.50;13.13;;;;;;;2.56;65.43;101598.94;5046451;28;20243;-67
2023/01/21 08:14:20;;;;;;;28.23;12.83;;;;;;;2.57;65.35;101600.63;5046235;28;20230;-68
2023/01/21 08:16:48;;;;;;;32.17;14.43;;;;;;;2.69;64.98;101603.63;5044830;28;20240;-69
2023/01/21 08:19:19;;;;;;;25.37;12.87;;;;;;;2.68;64.93;101602.78;5041757;28;20243;-69
2023/01/21 08:21:46;;;;;;;30.65;14.77;;;;;;;2.68;65.02;101613.25;5043723;28;20455;-69
2023/01/21 08:24:15;;;;;;;32.37;14.73;;;;;;;2.73;64.98;101599.97;5049375;28;20320;-69
2023/01/21 08:26:44;;;;;;;28.43;13.90;;;;;;;2.77;64.70;101602.34;5052500;28;20265;-71
2023/01/21 08:29:12;;;;;;;31.27;14.07;;;;;;;2.81;64.57;101600.44;5053642;28;20211;-72
2023/01/21 08:31:40;;;;;;;31.57;13.80;;;;;;;2.80;64.52;101603.97;5054260;28;20210;-69
2023/01/21 08:34:08;;;;;;;28.47;13.93;;;;;;;2.81;64.89;101603.06;5057718;28;20242;-69
2023/01/21 08:36:37;;;;;;;30.03;14.00;;;;;;;2.82;64.81;101607.34;5044748;28;20197;-68
2023/01/21 08:39:05;;;;;;;30.07;13.93;;;;;;;2.85;64.75;101605.47;5046979;28;20208;-69
2023/01/21 08:41:33;;;;;;;34.67;15.00;;;;;;;2.94;64.46;101614.66;5043722;28;20212;-68
2023/01/21 08:44:02;;;;;;;34.37;15.33;;;;;;;2.93;64.46;101613.81;5048375;28;20239;-68
2023/01/21 08:46:30;;;;;;;31.60;14.57;;;;;;;2.92;64.55;101617.34;5047898;28;20292;-68
2023/01/21 08:48:58;;;;;;;28.63;14.50;;;;;;;2.87;64.71;101621.97;5048132;28;20306;-69
2023/01/21 08:51:26;;;;;;;34.63;15.97;;;;;;;2.94;64.44;101618.13;5053417;28;20209;-69
2023/01/21 08:53:54;;;;;;;35.47;14.33;;;;;;;3.01;64.40;101613.44;5052807;28;20291;-68
2023/01/21 08:56:22;;;;;;;30.27;13.77;;;;;;;3.07;64.28;101621.03;5050298;28;20702;-68
2023/01/21 08:58:54;;;;;;;30.00;14.90;;;;;;;3.17;63.80;101626.66;5051383;28;20316;-69
2023/01/21 09:01:24;;;;;;;29.53;14.00;;;;;;;3.24;63.46;101622.84;5046964;28;20218;-69
2023/01/21 09:03:56;;;;;;;27.27;13.47;;;;;;;3.33;63.49;101622.41;5049032;28;20236;-69
2023/01/21 09:06:24;;;;;;;30.10;14.07;;;;;;;3.40;62.94;101619.41;5053770;28;20209;-68
2023/01/21 09:08:53;;;;;;;28.77;13.93;;;;;;;3.38;63.23;101618.63;5052480;28;20208;-69
2023/01/21 09:11:21;;;;;;;32.07;14.87;;;;;;;3.48;63.17;101623.44;5051996;28;20244;-69
2023/01/21 09:13:51;;;;;;;26.40;13.10;;;;;;;3.49;62.93;101622.50;5055868;28;20205;-69
2023/01/21 09:16:20;;;;;;;27.13;14.20;;;;;;;3.49;62.88;101622.50;5052727;28;20228;-68
2023/01/21 09:18:50;;;;;;;26.90;12.57;;;;;;;3.51;62.65;101626.78;5053996;28;20298;-68
2023/01/21 09:21:18;;;;;;;25.07;12.57;;;;;;;3.53;62.46;101637.16;5053031;28;20213;-68
2023/01/21 09:23:46;;;;;;;31.07;13.73;;;;;;;3.50;62.28;101639.97;5052965;28;20252;-69
2023/01/21 09:26:15;;;;;;;27.43;13.13;;;;;;;3.61;62.15;101645.50;5051349;28;20204;-68
2023/01/21 09:28:45;;;;;;;28.50;14.00;;;;;;;3.57;62.69;101643.97;5052628;28;20211;-68
2023/01/21 09:31:15;;;;;;;25.23;12.27;;;;;;;3.61;62.57;101648.97;5051660;28;20406;-69
2023/01/21 09:33:46;;;;;;;26.47;13.70;;;;;;;3.59;62.73;101650.00;5049669;28;20216;-67
2023/01/21 09:36:17;;;;;;;26.67;13.17;;;;;;;3.54;62.42;101654.59;5053954;28;20200;-67
2023/01/21 09:38:47;;;;;;;25.17;12.97;;;;;;;3.59;62.88;101656.09;5052821;28;20201;-67
2023/01/21 09:41:27;;;;;;;25.23;12.83;;;;;;;3.59;62.81;101661.34;5049292;28;20240;-67
2023/01/21 09:44:01;;;;;;;27.23;12.60;;;;;;;3.63;62.97;101662.03;5050087;28;20216;-68
2023/01/21 09:46:42;;;;;;;24.10;12.83;;;;;;;3.65;62.83;101662.81;5052124;28;20236;-68
2023/01/21 09:49:16;;;;;;;29.80;13.40;;;;;;;3.64;62.80;101664.56;5049569;28;20205;-68
2023/01/21 09:51:59;;;;;;;28.43;12.97;;;;;;;3.63;63.34;101667.28;5048426;28;20208;-67
2023/01/21 09:54:33;;;;;;;23.97;13.17;;;;;;;3.63;63.36;101670.75;5053559;28;20201;-68
2023/01/21 09:57:24;;;;;;;31.57;13.83;;;;;;;3.69;62.66;101667.00;5049224;28;20214;-69
2023/01/21 10:00:04;;;;;;;27.03;13.33;;;;;;;3.74;62.76;101675.47;5049855;28;20233;-68
2023/01/21 10:02:41;;;;;;;30.50;13.33;;;;;;;3.77;62.70;101681.44;5051678;28;21015;-67
2023/01/21 10:05:33;;;;;;;27.33;13.43;;;;;;;3.82;62.32;101678.56;5049209;28;20727;-69
2023/01/21 10:08:12;;;;;;;26.17;13.73;;;;;;;3.88;61.73;101674.78;5050542;28;20205;-69
2023/01/21 10:10:50;;;;;;;26.13;12.60;;;;;;;3.85;61.77;101678.44;5053593;28;20248;-68
2023/01/21 10:13:37;;;;;;;28.37;12.97;;;;;;;3.91;61.74;101682.50;5057103;28;20206;-69
2023/01/21 10:16:20;;;;;;;27.37;13.17;;;;;;;3.99;61.43;101672.47;5056154;28;20200;-69
2023/01/21 10:18:52;;;;;;;26.93;13.77;;;;;;;3.99;61.58;101673.31;5052798;28;20277;-69
2023/01/21 10:21:30;;;;;;;31.63;13.07;;;;;;;4.08;61.06;101675.50;5051385;28;20273;-71
2023/01/21 10:24:04;;;;;;;28.33;12.57;;;;;;;4.12;61.03;101682.31;5055576;28;20865;-68
2023/01/21 10:26:34;;;;;;;26.20;12.10;;;;;;;4.11;60.95;101682.38;5051675;28;20208;-68
2023/01/21 10:29:02;;;;;;;27.00;12.43;;;;;;;4.11;61.40;101674.50;5053227;28;20220;-69
2023/01/21 10:31:39;;;;;;;23.30;12.67;;;;;;;4.16;61.23;101675.09;5056489;28;20277;-69
2023/01/21 10:34:13;;;;;;;27.47;13.10;;;;;;;4.22;60.98;101677.44;5054250;28;21121;-69
2023/01/21 10:36:53;;;;;;;22.53;11.47;;;;;;;4.33;60.55;101668.97;5054991;28;20238;-70
2023/01/21 10:39:31;;;;;;;27.43;12.90;;;;;;;4.40;60.44;101672.97;5054960;28;20211;-69
2023/01/21 10:42:19;;;;;;;26.03;11.80;;;;;;;4.47;60.41;101672.63;5051804;28;20300;-68
2023/01/21 10:44:57;;;;;;;23.20;12.20;;;;;;;4.55;60.32;101664.31;5051625;28;20235;-69
2023/01/21 10:47:35;;;;;;;21.53;11.63;;;;;;;4.55;59.82;101669.59;5052539;28;20214;-69
2023/01/21 10:50:17;;;;;;;24.00;12.57;;;;;;;4.57;60.08;101670.34;5053039;28;20211;-69
2023/01/21 10:52:50;;;;;;;22.73;12.63;;;;;;;4.58;60.26;101672.03;5053138;28;20225;-69
2023/01/21 10:55:30;;;;;;;22.23;11.97;;;;;;;4.67;59.82;101668.91;5051285;28;21561;-69
2023/01/21 10:58:02;;;;;;;24.83;12.90;;;;;;;4.73;59.71;101678.28;5051606;28;20294;-68
2023/01/21 11:00:34;;;;;;;25.80;12.50;;;;;;;4.76;59.61;101667.56;5050533;28;20529;-69
2023/01/21 11:03:14;;;;;;;25.23;13.63;;;;;;;4.91;59.69;101670.25;5052628;28;20215;-69
2023/01/21 11:05:43;;;;;;;25.80;12.57;;;;;;;5.16;59.07;101668.91;5050994;28;20334;-68
2023/01/21 11:08:18;;;;;;;23.47;12.67;;;;;;;5.46;58.44;101658.44;5052070;28;20209;-69
2023/01/21 11:10:52;;;;;;;24.00;12.57;;;;;;;5.80;57.64;101658.25;5054359;28;20243;-68
2023/01/21 11:13:20;;;;;;;24.57;13.77;;;;;;;5.94;57.00;101668.84;5055691;28;20196;-69
2023/01/21 11:15:51;;;;;;;23.00;12.73;;;;;;;6.50;56.18;101672.53;5054166;28;20400;-69
2023/01/21 11:18:32;;;;;;;23.50;12.07;;;;;;;6.59;55.40;101671.13;5052317;28;20672;-69
2023/01/21 11:21:02;;;;;;;26.63;12.50;;;;;;;6.58;55.14;101669.44;5051768;28;20299;-69
2023/01/21 11:23:33;;;;;;;22.20;12.63;;;;;;;6.58;55.23;101667.66;5049475;28;20212;-70
2023/01/21 11:26:05;;;;;;;22.67;12.17;;;;;;;6.59;55.12;101673.78;5049314;28;20228;-67
2023/01/21 11:28:35;;;;;;;22.80;12.00;;;;;;;6.46;55.10;101672.81;5047497;28;20608;-67
2023/01/21 11:31:13;;;;;;;23.37;12.07;;;;;;;6.29;56.22;101664.13;5051038;28;20223;-68
2023/01/21 11:33:42;;;;;;;22.13;12.27;;;;;;;6.15;56.56;101658.84;5053381;28;20322;-70
2023/01/21 11:36:16;;;;;;;21.83;11.70;;;;;;;6.00;57.01;101671.09;5053425;28;20213;-65
2023/01/21 11:38:46;;;;;;;23.60;11.57;;;;;;;6.00;57.48;101670.25;5049398;28;20447;-66
2023/01/21 11:41:22;;;;;;;21.40;11.00;;;;;;;5.99;57.31;101666.78;5051761;28;20240;-67
2023/01/21 11:43:51;;;;;;;23.57;11.20;;;;;;;5.91;58.02;101662.91;5050740;28;20252;-68
2023/01/21 11:46:28;;;;;;;19.07;11.20;;;;;;;5.84;57.97;101665.00;5048942;28;20220;-66